<?xml version='1.0' encoding='UTF-8'?>
<gpx version="1.1" creator="https://www.komoot.de" xmlns="http://www.topografix.com/GPX/1/1" xmlns:xsi="http://www.w3.org/2001/XMLSchema-instance" xsi:schemaLocation="http://www.topografix.com/GPX/1/1 http://www.topografix.com/GPX/1/1/gpx.xsd">
  <metadata>
    <name>Aller Départ BRM 200 Paris Paname</name>
    <author>
      <link href="https://www.komoot.de">
        <text>komoot</text>
        <type>text/html</type>
      </link>
    </author>
  </metadata>
  <trk>
    <name>Aller Départ BRM 200 Paris Paname</name>
    <trkseg>
      <trkpt lat="48.884357" lon="2.269393">
        <ele>41.279261</ele>
        <time>2025-03-27T21:49:12.786Z</time>
      </trkpt>
      <trkpt lat="48.884289" lon="2.269697">
        <ele>41.279261</ele>
        <time>2025-03-27T21:49:16.860Z</time>
      </trkpt>
      <trkpt lat="48.884266" lon="2.269802">
        <ele>41.279261</ele>
        <time>2025-03-27T21:49:18.244Z</time>
      </trkpt>
      <trkpt lat="48.884128" lon="2.270393">
        <ele>41.279261</ele>
        <time>2025-03-27T21:49:26.378Z</time>
      </trkpt>
      <trkpt lat="48.884077" lon="2.270608">
        <ele>41.279261</ele>
        <time>2025-03-27T21:49:29.427Z</time>
      </trkpt>
      <trkpt lat="48.883973" lon="2.271054">
        <ele>41.462078</ele>
        <time>2025-03-27T21:49:35.934Z</time>
      </trkpt>
      <trkpt lat="48.883902" lon="2.271346">
        <ele>41.606868</ele>
        <time>2025-03-27T21:49:40.121Z</time>
      </trkpt>
      <trkpt lat="48.883887" lon="2.271410">
        <ele>41.638467</ele>
        <time>2025-03-27T21:49:41.022Z</time>
      </trkpt>
      <trkpt lat="48.883832" lon="2.271648">
        <ele>41.755793</ele>
        <time>2025-03-27T21:49:44.307Z</time>
      </trkpt>
      <trkpt lat="48.883819" lon="2.271701">
        <ele>41.782101</ele>
        <time>2025-03-27T21:49:45.004Z</time>
      </trkpt>
      <trkpt lat="48.883664" lon="2.272372">
        <ele>42.112866</ele>
        <time>2025-03-27T21:49:53.320Z</time>
      </trkpt>
      <trkpt lat="48.883627" lon="2.272531">
        <ele>42.191307</ele>
        <time>2025-03-27T21:49:55.142Z</time>
      </trkpt>
      <trkpt lat="48.883408" lon="2.273518">
        <ele>42.486297</ele>
        <time>2025-03-27T21:50:05.310Z</time>
      </trkpt>
      <trkpt lat="48.883338" lon="2.273830">
        <ele>42.406121</ele>
        <time>2025-03-27T21:50:08.329Z</time>
      </trkpt>
      <trkpt lat="48.883268" lon="2.274135">
        <ele>42.327554</ele>
        <time>2025-03-27T21:50:11.136Z</time>
      </trkpt>
      <trkpt lat="48.883168" lon="2.274577">
        <ele>42.213871</ele>
        <time>2025-03-27T21:50:15.604Z</time>
      </trkpt>
      <trkpt lat="48.883043" lon="2.275132">
        <ele>42.071191</ele>
        <time>2025-03-27T21:50:20.446Z</time>
      </trkpt>
      <trkpt lat="48.882977" lon="2.275425">
        <ele>41.995866</ele>
        <time>2025-03-27T21:50:22.889Z</time>
      </trkpt>
      <trkpt lat="48.882937" lon="2.275596">
        <ele>41.951724</ele>
        <time>2025-03-27T21:50:24.336Z</time>
      </trkpt>
      <trkpt lat="48.882892" lon="2.275801">
        <ele>41.899161</ele>
        <time>2025-03-27T21:50:26.314Z</time>
      </trkpt>
      <trkpt lat="48.882844" lon="2.275996">
        <ele>41.850662</ele>
        <time>2025-03-27T21:50:28.531Z</time>
      </trkpt>
      <trkpt lat="48.882744" lon="2.276403">
        <ele>41.751007</ele>
        <time>2025-03-27T21:50:33.052Z</time>
      </trkpt>
      <trkpt lat="48.882724" lon="2.276484">
        <ele>41.731162</ele>
        <time>2025-03-27T21:50:33.811Z</time>
      </trkpt>
      <trkpt lat="48.882544" lon="2.277231">
        <ele>41.548684</ele>
        <time>2025-03-27T21:50:43.453Z</time>
      </trkpt>
      <trkpt lat="48.882514" lon="2.277229">
        <ele>41.538210</ele>
        <time>2025-03-27T21:50:44.020Z</time>
      </trkpt>
      <trkpt lat="48.882497" lon="2.277267">
        <ele>41.527668</ele>
        <time>2025-03-27T21:50:44.508Z</time>
      </trkpt>
      <trkpt lat="48.882533" lon="2.277318">
        <ele>41.510507</ele>
        <time>2025-03-27T21:50:45.055Z</time>
      </trkpt>
      <trkpt lat="48.882481" lon="2.277546">
        <ele>41.455156</ele>
        <time>2025-03-27T21:50:48.007Z</time>
      </trkpt>
      <trkpt lat="48.882454" lon="2.277664">
        <ele>41.426499</ele>
        <time>2025-03-27T21:50:49.509Z</time>
      </trkpt>
      <trkpt lat="48.882281" lon="2.278411">
        <ele>41.197065</ele>
        <time>2025-03-27T21:50:56.858Z</time>
      </trkpt>
      <trkpt lat="48.882204" lon="2.278753">
        <ele>40.829873</ele>
        <time>2025-03-27T21:51:00.753Z</time>
      </trkpt>
      <trkpt lat="48.882179" lon="2.278859">
        <ele>40.715485</ele>
        <time>2025-03-27T21:51:01.818Z</time>
      </trkpt>
      <trkpt lat="48.882092" lon="2.279237">
        <ele>40.308683</ele>
        <time>2025-03-27T21:51:04.967Z</time>
      </trkpt>
      <trkpt lat="48.882069" lon="2.279337">
        <ele>40.201071</ele>
        <time>2025-03-27T21:51:05.741Z</time>
      </trkpt>
      <trkpt lat="48.882053" lon="2.279408">
        <ele>40.124834</ele>
        <time>2025-03-27T21:51:06.311Z</time>
      </trkpt>
      <trkpt lat="48.881872" lon="2.280175">
        <ele>39.297083</ele>
        <time>2025-03-27T21:51:12.298Z</time>
      </trkpt>
      <trkpt lat="48.881756" lon="2.280674">
        <ele>38.759468</ele>
        <time>2025-03-27T21:51:15.908Z</time>
      </trkpt>
      <trkpt lat="48.881711" lon="2.280871">
        <ele>38.547629</ele>
        <time>2025-03-27T21:51:17.345Z</time>
      </trkpt>
      <trkpt lat="48.881662" lon="2.281082">
        <ele>38.369305</ele>
        <time>2025-03-27T21:51:18.904Z</time>
      </trkpt>
      <trkpt lat="48.881575" lon="2.281468">
        <ele>38.081561</ele>
        <time>2025-03-27T21:51:21.791Z</time>
      </trkpt>
      <trkpt lat="48.881562" lon="2.281527">
        <ele>38.037682</ele>
        <time>2025-03-27T21:51:22.226Z</time>
      </trkpt>
      <trkpt lat="48.881503" lon="2.281797">
        <ele>37.837046</ele>
        <time>2025-03-27T21:51:24.179Z</time>
      </trkpt>
      <trkpt lat="48.881479" lon="2.281909">
        <ele>37.753978</ele>
        <time>2025-03-27T21:51:24.990Z</time>
      </trkpt>
      <trkpt lat="48.881463" lon="2.281983">
        <ele>37.699046</ele>
        <time>2025-03-27T21:51:25.524Z</time>
      </trkpt>
      <trkpt lat="48.881269" lon="2.282885">
        <ele>37.029814</ele>
        <time>2025-03-27T21:51:33.091Z</time>
      </trkpt>
      <trkpt lat="48.881160" lon="2.283352">
        <ele>36.680363</ele>
        <time>2025-03-27T21:51:37.700Z</time>
      </trkpt>
      <trkpt lat="48.881054" lon="2.283637">
        <ele>36.700357</ele>
        <time>2025-03-27T21:51:42.377Z</time>
      </trkpt>
      <trkpt lat="48.881033" lon="2.283700">
        <ele>36.772708</ele>
        <time>2025-03-27T21:51:43.510Z</time>
      </trkpt>
      <trkpt lat="48.880914" lon="2.283941">
        <ele>37.081422</ele>
        <time>2025-03-27T21:51:48.340Z</time>
      </trkpt>
      <trkpt lat="48.880856" lon="2.284006">
        <ele>37.193651</ele>
        <time>2025-03-27T21:51:49.930Z</time>
      </trkpt>
      <trkpt lat="48.880856" lon="2.284157">
        <ele>37.348329</ele>
        <time>2025-03-27T21:51:52.259Z</time>
      </trkpt>
      <trkpt lat="48.880927" lon="2.284291">
        <ele>37.524603</ele>
        <time>2025-03-27T21:51:54.710Z</time>
      </trkpt>
      <trkpt lat="48.881030" lon="2.284373">
        <ele>37.705700</ele>
        <time>2025-03-27T21:51:57.022Z</time>
      </trkpt>
      <trkpt lat="48.881150" lon="2.284502">
        <ele>37.934612</ele>
        <time>2025-03-27T21:52:00.189Z</time>
      </trkpt>
      <trkpt lat="48.881236" lon="2.284638">
        <ele>38.127880</ele>
        <time>2025-03-27T21:52:02.971Z</time>
      </trkpt>
      <trkpt lat="48.881588" lon="2.285198">
        <ele>38.921408</ele>
        <time>2025-03-27T21:52:14.751Z</time>
      </trkpt>
      <trkpt lat="48.881658" lon="2.285314">
        <ele>39.082678</ele>
        <time>2025-03-27T21:52:16.716Z</time>
      </trkpt>
      <trkpt lat="48.881731" lon="2.285437">
        <ele>39.252397</ele>
        <time>2025-03-27T21:52:18.908Z</time>
      </trkpt>
      <trkpt lat="48.881753" lon="2.285475">
        <ele>39.304257</ele>
        <time>2025-03-27T21:52:19.596Z</time>
      </trkpt>
      <trkpt lat="48.882247" lon="2.286306">
        <ele>39.365679</ele>
        <time>2025-03-27T21:52:34.472Z</time>
      </trkpt>
      <trkpt lat="48.882271" lon="2.286346">
        <ele>39.366297</ele>
        <time>2025-03-27T21:52:35.080Z</time>
      </trkpt>
      <trkpt lat="48.882255" lon="2.286370">
        <ele>39.366687</ele>
        <time>2025-03-27T21:52:35.655Z</time>
      </trkpt>
      <trkpt lat="48.882277" lon="2.286406">
        <ele>39.367248</ele>
        <time>2025-03-27T21:52:36.236Z</time>
      </trkpt>
      <trkpt lat="48.882502" lon="2.286765">
        <ele>39.372909</ele>
        <time>2025-03-27T21:52:40.763Z</time>
      </trkpt>
      <trkpt lat="48.882922" lon="2.287437">
        <ele>39.383491</ele>
        <time>2025-03-27T21:52:48.006Z</time>
      </trkpt>
      <trkpt lat="48.883010" lon="2.287576">
        <ele>39.366822</ele>
        <time>2025-03-27T21:52:49.448Z</time>
      </trkpt>
      <trkpt lat="48.883106" lon="2.287729">
        <ele>39.325139</ele>
        <time>2025-03-27T21:52:51.001Z</time>
      </trkpt>
      <trkpt lat="48.883418" lon="2.288229">
        <ele>39.189275</ele>
        <time>2025-03-27T21:52:56.207Z</time>
      </trkpt>
      <trkpt lat="48.883730" lon="2.288729">
        <ele>39.053411</ele>
        <time>2025-03-27T21:53:01.998Z</time>
      </trkpt>
      <trkpt lat="48.883935" lon="2.289058">
        <ele>38.964075</ele>
        <time>2025-03-27T21:53:06.298Z</time>
      </trkpt>
      <trkpt lat="48.883960" lon="2.289098">
        <ele>38.953197</ele>
        <time>2025-03-27T21:53:06.894Z</time>
      </trkpt>
      <trkpt lat="48.884104" lon="2.289329">
        <ele>38.890459</ele>
        <time>2025-03-27T21:53:10.822Z</time>
      </trkpt>
      <trkpt lat="48.884116" lon="2.289348">
        <ele>38.885266</ele>
        <time>2025-03-27T21:53:11.164Z</time>
      </trkpt>
      <trkpt lat="48.885017" lon="2.290797">
        <ele>40.587567</ele>
        <time>2025-03-27T21:53:41.451Z</time>
      </trkpt>
      <trkpt lat="48.885041" lon="2.290836">
        <ele>40.639473</ele>
        <time>2025-03-27T21:53:42.247Z</time>
      </trkpt>
      <trkpt lat="48.885425" lon="2.291448">
        <ele>41.461492</ele>
        <time>2025-03-27T21:53:52.986Z</time>
      </trkpt>
      <trkpt lat="48.885458" lon="2.291501">
        <ele>41.505993</ele>
        <time>2025-03-27T21:53:53.735Z</time>
      </trkpt>
      <trkpt lat="48.885605" lon="2.291753">
        <ele>41.533513</ele>
        <time>2025-03-27T21:53:57.257Z</time>
      </trkpt>
      <trkpt lat="48.885636" lon="2.291815">
        <ele>41.539876</ele>
        <time>2025-03-27T21:53:58.074Z</time>
      </trkpt>
      <trkpt lat="48.885623" lon="2.291923">
        <ele>41.548846</ele>
        <time>2025-03-27T21:53:59.288Z</time>
      </trkpt>
      <trkpt lat="48.885605" lon="2.292061">
        <ele>41.560339</ele>
        <time>2025-03-27T21:54:00.732Z</time>
      </trkpt>
      <trkpt lat="48.885601" lon="2.292089">
        <ele>41.562680</ele>
        <time>2025-03-27T21:54:01.016Z</time>
      </trkpt>
      <trkpt lat="48.885589" lon="2.292185">
        <ele>41.570663</ele>
        <time>2025-03-27T21:54:02.062Z</time>
      </trkpt>
      <trkpt lat="48.885469" lon="2.293077">
        <ele>41.645044</ele>
        <time>2025-03-27T21:54:10.173Z</time>
      </trkpt>
      <trkpt lat="48.885530" lon="2.293234">
        <ele>41.659942</ele>
        <time>2025-03-27T21:54:11.754Z</time>
      </trkpt>
      <trkpt lat="48.885570" lon="2.293340">
        <ele>41.669926</ele>
        <time>2025-03-27T21:54:12.909Z</time>
      </trkpt>
      <trkpt lat="48.885675" lon="2.293636">
        <ele>41.697401</ele>
        <time>2025-03-27T21:54:16.403Z</time>
      </trkpt>
      <trkpt lat="48.885750" lon="2.293834">
        <ele>41.716069</ele>
        <time>2025-03-27T21:54:18.504Z</time>
      </trkpt>
      <trkpt lat="48.885848" lon="2.294095">
        <ele>41.649817</ele>
        <time>2025-03-27T21:54:21.485Z</time>
      </trkpt>
      <trkpt lat="48.886049" lon="2.294653">
        <ele>41.354643</ele>
        <time>2025-03-27T21:54:28.854Z</time>
      </trkpt>
      <trkpt lat="48.886104" lon="2.294804">
        <ele>41.274559</ele>
        <time>2025-03-27T21:54:30.683Z</time>
      </trkpt>
      <trkpt lat="48.886334" lon="2.295430">
        <ele>40.941876</ele>
        <time>2025-03-27T21:54:36.520Z</time>
      </trkpt>
      <trkpt lat="48.886378" lon="2.295550">
        <ele>40.878134</ele>
        <time>2025-03-27T21:54:37.576Z</time>
      </trkpt>
      <trkpt lat="48.886466" lon="2.295767">
        <ele>40.759854</ele>
        <time>2025-03-27T21:54:39.489Z</time>
      </trkpt>
      <trkpt lat="48.886531" lon="2.295950">
        <ele>40.663361</ele>
        <time>2025-03-27T21:54:41.029Z</time>
      </trkpt>
      <trkpt lat="48.886665" lon="2.296328">
        <ele>40.464134</ele>
        <time>2025-03-27T21:54:44.223Z</time>
      </trkpt>
      <trkpt lat="48.886909" lon="2.297018">
        <ele>40.391471</ele>
        <time>2025-03-27T21:54:50.270Z</time>
      </trkpt>
      <trkpt lat="48.886989" lon="2.297354">
        <ele>40.360602</ele>
        <time>2025-03-27T21:54:53.046Z</time>
      </trkpt>
      <trkpt lat="48.887023" lon="2.297454">
        <ele>40.350877</ele>
        <time>2025-03-27T21:54:53.916Z</time>
      </trkpt>
      <trkpt lat="48.887070" lon="2.297594">
        <ele>40.337298</ele>
        <time>2025-03-27T21:54:55.158Z</time>
      </trkpt>
      <trkpt lat="48.887074" lon="2.297608">
        <ele>40.335979</ele>
        <time>2025-03-27T21:54:55.289Z</time>
      </trkpt>
      <trkpt lat="48.887068" lon="2.297793">
        <ele>40.319978</ele>
        <time>2025-03-27T21:54:56.903Z</time>
      </trkpt>
      <trkpt lat="48.887091" lon="2.297951">
        <ele>40.305999</ele>
        <time>2025-03-27T21:54:58.518Z</time>
      </trkpt>
      <trkpt lat="48.887198" lon="2.298216">
        <ele>40.279136</ele>
        <time>2025-03-27T21:55:02.124Z</time>
      </trkpt>
      <trkpt lat="48.887226" lon="2.298275">
        <ele>40.272850</ele>
        <time>2025-03-27T21:55:03.056Z</time>
      </trkpt>
      <trkpt lat="48.887245" lon="2.298316">
        <ele>40.268517</ele>
        <time>2025-03-27T21:55:03.740Z</time>
      </trkpt>
      <trkpt lat="48.887850" lon="2.299596">
        <ele>40.423551</ele>
        <time>2025-03-27T21:55:27.278Z</time>
      </trkpt>
      <trkpt lat="48.887952" lon="2.299813">
        <ele>40.475590</ele>
        <time>2025-03-27T21:55:30.492Z</time>
      </trkpt>
      <trkpt lat="48.888030" lon="2.299978">
        <ele>40.515236</ele>
        <time>2025-03-27T21:55:32.648Z</time>
      </trkpt>
      <trkpt lat="48.888621" lon="2.301227">
        <ele>40.640719</ele>
        <time>2025-03-27T21:55:44.768Z</time>
      </trkpt>
      <trkpt lat="48.888642" lon="2.301204">
        <ele>40.626062</ele>
        <time>2025-03-27T21:55:45.208Z</time>
      </trkpt>
      <trkpt lat="48.888661" lon="2.301247">
        <ele>40.606769</ele>
        <time>2025-03-27T21:55:45.597Z</time>
      </trkpt>
      <trkpt lat="48.889048" lon="2.302041">
        <ele>40.238705</ele>
        <time>2025-03-27T21:55:53.592Z</time>
      </trkpt>
      <trkpt lat="48.889393" lon="2.302792">
        <ele>39.897539</ele>
        <time>2025-03-27T21:56:01.823Z</time>
      </trkpt>
      <trkpt lat="48.889456" lon="2.302942">
        <ele>39.831256</ele>
        <time>2025-03-27T21:56:04.326Z</time>
      </trkpt>
      <trkpt lat="48.889582" lon="2.303206">
        <ele>39.694654</ele>
        <time>2025-03-27T21:56:08.836Z</time>
      </trkpt>
      <trkpt lat="48.889718" lon="2.303490">
        <ele>39.490300</ele>
        <time>2025-03-27T21:56:12.991Z</time>
      </trkpt>
      <trkpt lat="48.889798" lon="2.303655">
        <ele>39.371058</ele>
        <time>2025-03-27T21:56:15.233Z</time>
      </trkpt>
      <trkpt lat="48.889905" lon="2.303867">
        <ele>39.215610</ele>
        <time>2025-03-27T21:56:17.832Z</time>
      </trkpt>
      <trkpt lat="48.889994" lon="2.304026">
        <ele>39.094155</ele>
        <time>2025-03-27T21:56:19.599Z</time>
      </trkpt>
      <trkpt lat="48.890049" lon="2.304132">
        <ele>39.015616</ele>
        <time>2025-03-27T21:56:20.649Z</time>
      </trkpt>
      <trkpt lat="48.890094" lon="2.304214">
        <ele>38.953492</ele>
        <time>2025-03-27T21:56:21.508Z</time>
      </trkpt>
      <trkpt lat="48.890108" lon="2.304241">
        <ele>38.933492</ele>
        <time>2025-03-27T21:56:21.774Z</time>
      </trkpt>
      <trkpt lat="48.890139" lon="2.304299">
        <ele>38.890017</ele>
        <time>2025-03-27T21:56:22.320Z</time>
      </trkpt>
      <trkpt lat="48.890267" lon="2.304562">
        <ele>38.699699</ele>
        <time>2025-03-27T21:56:25.918Z</time>
      </trkpt>
      <trkpt lat="48.890542" lon="2.305145">
        <ele>38.282369</ele>
        <time>2025-03-27T21:56:33.649Z</time>
      </trkpt>
      <trkpt lat="48.891325" lon="2.306774">
        <ele>36.262095</ele>
        <time>2025-03-27T21:56:54.812Z</time>
      </trkpt>
      <trkpt lat="48.891387" lon="2.306984">
        <ele>36.018882</ele>
        <time>2025-03-27T21:56:57.267Z</time>
      </trkpt>
      <trkpt lat="48.892232" lon="2.308747">
        <ele>34.580409</ele>
        <time>2025-03-27T21:57:21.699Z</time>
      </trkpt>
      <trkpt lat="48.892330" lon="2.308912">
        <ele>34.477552</ele>
        <time>2025-03-27T21:57:24.389Z</time>
      </trkpt>
      <trkpt lat="48.892465" lon="2.309187">
        <ele>34.318797</ele>
        <time>2025-03-27T21:57:28.601Z</time>
      </trkpt>
      <trkpt lat="48.892972" lon="2.310228">
        <ele>34.197054</ele>
        <time>2025-03-27T21:57:45.785Z</time>
      </trkpt>
      <trkpt lat="48.893500" lon="2.311599">
        <ele>34.760388</ele>
        <time>2025-03-27T21:58:10.544Z</time>
      </trkpt>
      <trkpt lat="48.893564" lon="2.311780">
        <ele>34.833252</ele>
        <time>2025-03-27T21:58:13.900Z</time>
      </trkpt>
      <trkpt lat="48.893639" lon="2.311984">
        <ele>34.916118</ele>
        <time>2025-03-27T21:58:16.884Z</time>
      </trkpt>
      <trkpt lat="48.893648" lon="2.312010">
        <ele>34.926536</ele>
        <time>2025-03-27T21:58:17.237Z</time>
      </trkpt>
      <trkpt lat="48.894180" lon="2.313406">
        <ele>34.422534</ele>
        <time>2025-03-27T21:58:32.695Z</time>
      </trkpt>
      <trkpt lat="48.894262" lon="2.313638">
        <ele>34.329418</ele>
        <time>2025-03-27T21:58:34.775Z</time>
      </trkpt>
      <trkpt lat="48.894332" lon="2.313803">
        <ele>34.259998</ele>
        <time>2025-03-27T21:58:36.335Z</time>
      </trkpt>
      <trkpt lat="48.894457" lon="2.313470">
        <ele>34.124441</ele>
        <time>2025-03-27T21:58:39.311Z</time>
      </trkpt>
      <trkpt lat="48.894525" lon="2.313273">
        <ele>34.045784</ele>
        <time>2025-03-27T21:58:40.973Z</time>
      </trkpt>
      <trkpt lat="48.894551" lon="2.313218">
        <ele>34.021836</ele>
        <time>2025-03-27T21:58:41.482Z</time>
      </trkpt>
      <trkpt lat="48.894637" lon="2.313063">
        <ele>33.992653</ele>
        <time>2025-03-27T21:58:42.967Z</time>
      </trkpt>
      <trkpt lat="48.895111" lon="2.312211">
        <ele>33.992653</ele>
        <time>2025-03-27T21:58:51.298Z</time>
      </trkpt>
      <trkpt lat="48.895226" lon="2.312007">
        <ele>33.992653</ele>
        <time>2025-03-27T21:58:53.546Z</time>
      </trkpt>
      <trkpt lat="48.895291" lon="2.312062">
        <ele>33.992653</ele>
        <time>2025-03-27T21:58:54.621Z</time>
      </trkpt>
      <trkpt lat="48.895313" lon="2.312095">
        <ele>33.992653</ele>
        <time>2025-03-27T21:58:55.100Z</time>
      </trkpt>
      <trkpt lat="48.895463" lon="2.312323">
        <ele>33.992653</ele>
        <time>2025-03-27T21:58:58.227Z</time>
      </trkpt>
      <trkpt lat="48.895604" lon="2.312461">
        <ele>33.992653</ele>
        <time>2025-03-27T21:59:00.696Z</time>
      </trkpt>
      <trkpt lat="48.895767" lon="2.312688">
        <ele>33.992653</ele>
        <time>2025-03-27T21:59:03.929Z</time>
      </trkpt>
    </trkseg>
  </trk>
</gpx>